Latest Weather Observations for Jervois

IDD60801

Issued at 8:01 pm CST Tuesday 3 May 2016 (issued every 30 minutes, with the page automatically refreshed every 10 minutes)

About weather observations | Map of weather stations | Latest weather observations for NT | Other Formats
Station Details ID: 015602 Name: JERVOIS Lat: -22.95 Lon: 136.14 Height: 328.0 m
Data from the previous 72 hours. | See also: Recent months at Jervois
Date/Time
CST
Temp
°C
App
Temp
°C
Dew
Point
Rel
Hum
%
Delta-T
°C
Wind Press
QNH
hPa
Press
MSL
hPa
Rain
since 9 am
mm
Dir
 
Spd
km/h
Gust
km/h
Spd
kts
Gust
kts
03/08:00pm 19.8 20.1 14.4 71 3.2 ENE 6 7 3 4 1018.3 - 0.0
03/07:30pm 20.5 20.4 13.8 65 3.9 NNE 7 9 4 5 1017.6 - 0.0
03/07:00pm 21.6 21.6 14.3 63 4.3 NNE 7 9 4 5 1017.3 - 0.0
03/06:30pm 22.3 21.9 14.2 60 4.8 NE 9 11 5 6 1016.7 - 0.0
03/06:00pm 23.1 23.1 14.2 57 5.3 E 7 9 4 5 1016.5 1015.7 0.0
03/05:30pm 23.8 23.8 14.3 55 5.7 E 7 11 4 6 1016.6 - 0.0
03/05:00pm 24.1 23.4 14.2 54 5.9 ENE 11 17 6 9 1016.3 - 0.0
03/04:30pm 24.5 24.5 14.3 53 6.1 SE 7 15 4 8 1016.3 - 0.0
03/04:00pm 24.4 24.5 14.4 53 6.0 ESE 7 11 4 6 1016.3 - 0.0
03/03:30pm 24.2 24.5 14.6 55 5.8 NE 6 11 3 6 1016.0 - 0.0
03/03:00pm 24.2 24.3 14.4 54 5.9 NNE 7 9 4 5 1016.1 1015.3 0.0
03/02:30pm 24.4 25.1 14.4 53 6.0 WSW 4 11 2 6 1016.6 - 0.0
03/02:00pm 24.3 24.3 14.1 53 6.1 NNW 7 13 4 7 1017.2 - 0.0
03/01:30pm 23.9 24.2 14.4 55 5.7 NNW 6 11 3 6 1016.9 - 0.0
03/01:00pm 24.4 24.5 14.4 53 6.0 NNW 7 11 4 6 1017.7 - 0.0
03/12:30pm 23.5 23.8 14.5 57 5.4 NE 6 11 3 6 1018.2 - 0.0
03/12:00pm 23.0 23.0 14.3 58 5.2 N 7 11 4 6 1019.1 1018.3 0.0
03/11:30am 22.9 22.8 13.9 57 5.3 N 7 11 4 6 1019.5 - 0.0
03/11:00am 22.1 21.8 13.2 57 5.2 N 7 13 4 7 1019.8 - 0.0
03/10:30am 21.9 21.4 12.7 56 5.3 NNE 7 11 4 6 1019.7 - 0.0
03/10:00am 21.1 21.1 12.3 57 5.0 N 4 6 2 3 1019.7 - 0.0
03/09:30am 20.4 20.3 12.1 59 4.7 NNW 4 7 2 4 1019.6 - 0.0
03/09:00am 19.3 20.6 14.0 71 3.1 CALM 0 0 0 0 1019.1 1018.3 0.2
03/08:30am 18.6 19.9 14.1 75 2.6 CALM 0 0 0 0 1018.8 - 0.2
03/08:00am 18.2 19.6 14.3 78 2.3 CALM 0 0 0 0 1018.5 - 0.2
03/07:30am 17.7 17.6 13.9 78 2.2 SW 7 11 4 6 1018.5 - 0.2
03/07:00am 17.6 18.4 13.8 78 2.2 WNW 2 6 1 3 1018.4 - 0.2
03/06:30am 17.4 18.6 13.7 79 2.1 CALM 0 6 0 3 1018.0 - 0.2
03/06:00am 17.4 18.6 13.8 79 2.1 CALM 0 0 0 0 1017.7 1017.0 0.2
03/05:30am 17.5 18.8 14.2 81 1.9 CALM 0 0 0 0 1016.8 - 0.2
03/05:00am 17.8 18.2 13.8 77 2.3 W 4 7 2 4 1017.0 - 0.2
03/04:30am 17.7 18.2 13.9 78 2.2 NW 4 7 2 4 1016.7 - 0.2
03/04:00am 17.9 17.9 13.7 76 2.4 W 6 7 3 4 1016.8 - 0.2
03/03:30am 17.8 18.6 13.6 76 2.4 SW 2 9 1 5 1016.6 - 0.2
03/03:00am 18.0 19.2 13.9 77 2.4 CALM 0 0 0 0 1016.6 1015.8 0.2
03/02:30am 17.9 19.3 14.3 79 2.1 CALM 0 0 0 0 1016.5 - 0.2
03/02:00am 18.0 18.7 14.6 80 2.0 ENE 4 7 2 4 1016.7 - 0.2
03/01:30am 18.0 18.3 14.4 79 2.1 NE 6 7 3 4 1017.4 - 0.2
03/01:00am 18.0 19.6 14.8 81 1.9 CALM 0 0 0 0 1018.0 - 0.2
03/12:30am 18.0 19.6 14.8 81 1.9 CALM 0 0 0 0 1018.3 - 0.2
03/12:00am 18.3 19.3 14.4 78 2.3 S 2 7 1 4 1018.9 1018.1 0.2
 
Date/Time
CST
Temp
°C
App
Temp
°C
Dew
Point
Rel
Hum
%
Delta-T
°C
Wind Press
QNH
hPa
Press
MSL
hPa
Rain
since 9 am
mm
Dir
 
Spd
km/h
Gust
km/h
Spd
kts
Gust
kts
02/11:30pm 18.6 19.0 13.8 73 2.8 SSE 4 7 2 4 1019.3 - 0.2
02/11:00pm 18.6 19.0 13.8 73 2.8 SE 4 9 2 5 1018.9 - 0.2
02/10:30pm 18.8 18.7 13.8 72 2.9 SE 7 9 4 5 1019.1 - 0.2
02/10:00pm 19.0 18.6 14.0 73 2.9 SE 9 13 5 7 1018.9 - 0.2
02/09:30pm 19.1 18.8 14.3 73 2.8 SE 9 13 5 7 1018.8 - 0.2
02/09:00pm 19.1 18.5 14.5 74 2.7 SE 11 15 6 8 1018.7 1017.9 0.2
02/08:30pm 19.4 18.5 14.8 75 2.7 SSE 13 19 7 10 1018.7 - 0.2
02/08:00pm 19.5 19.1 15.1 76 2.6 SE 11 15 6 8 1018.5 - 0.2
02/07:30pm 19.9 19.4 15.0 73 2.9 SSE 11 15 6 8 1018.4 - 0.2
02/07:00pm 20.4 20.2 14.7 70 3.4 SE 9 13 5 7 1018.1 - 0.2
02/06:30pm 20.7 20.9 14.8 69 3.5 SE 7 11 4 6 1017.6 - 0.2
02/06:00pm 20.9 21.3 14.7 67 3.7 SE 6 9 3 5 1017.7 1017.0 0.2
02/05:30pm 20.9 21.3 14.7 67 3.7 SE 6 9 3 5 1017.3 - 0.2
02/05:00pm 21.1 22.5 14.5 66 3.9 CALM 0 0 0 0 1017.3 - 0.2
02/04:30pm 21.0 20.8 14.8 67 3.7 SSE 9 13 5 7 1016.9 - 0.2
02/04:00pm 21.2 21.0 14.6 66 3.9 SSE 9 13 5 7 1016.7 - 0.2
02/03:30pm 20.9 21.1 14.7 67 3.7 SSE 7 13 4 7 1016.9 - 0.2
02/03:00pm 21.0 20.2 14.0 64 4.1 S 11 15 6 8 1017.2 1016.4 0.2
02/02:30pm 21.6 19.9 13.6 60 4.7 SE 15 20 8 11 1017.0 - 0.2
02/02:00pm 20.7 18.1 13.1 61 4.4 SE 19 24 10 13 1016.8 - 0.2
02/01:30pm 20.0 17.5 12.2 60 4.4 E 17 22 9 12 1016.9 - 0.2
02/01:00pm 20.2 17.4 11.2 56 5.0 SSW 17 26 9 14 1018.9 - 0.2
02/12:30pm 21.4 18.0 11.4 53 5.6 SSW 20 28 11 15 1019.9 - 0.2
02/12:00pm 21.1 19.1 11.5 54 5.4 SSE 13 20 7 11 1019.3 1018.4 0.2
02/11:30am 19.1 17.2 13.0 67 3.5 SSE 15 24 8 13 1019.4 - 0.2
02/11:00am 19.8 15.8 9.1 50 5.7 ESE 20 30 11 16 1019.5 - 0.0
02/10:30am 19.7 15.6 8.8 49 5.8 SSE 20 32 11 17 1020.0 - 0.0
02/10:00am 19.5 15.1 7.5 45 6.2 S 20 32 11 17 1020.8 - 0.0
02/09:30am 20.0 14.2 6.2 40 7.0 S 26 43 14 23 1020.9 - 0.0
02/09:00am 20.8 15.3 5.7 37 7.6 SSE 24 35 13 19 1020.0 1019.3 0.0
02/08:30am 20.4 15.1 5.1 36 7.6 SSE 22 32 12 17 1019.4 - 0.0
02/08:00am 20.2 15.8 4.5 35 7.7 S 17 26 9 14 1019.0 - 0.0
02/07:30am 19.4 14.9 4.1 36 7.4 S 17 24 9 13 1018.5 - 0.0
02/07:00am 19.3 14.8 4.0 36 7.4 S 17 26 9 14 1018.3 - 0.0
02/06:30am 19.2 15.1 4.1 37 7.3 S 15 20 8 11 1018.0 - 0.0
02/06:00am 19.1 15.4 4.6 38 7.1 SSW 13 17 7 9 1017.5 1016.7 0.0
02/05:30am 19.1 15.8 4.8 39 7.0 S 11 17 6 9 1016.7 - 0.0
02/05:00am 19.1 16.2 4.8 39 7.0 S 9 17 5 9 1016.8 - 0.0
02/04:30am 18.9 15.7 5.1 40 6.8 S 11 15 6 8 1016.6 - 0.0
02/04:00am 18.6 15.8 5.2 41 6.6 SSW 9 13 5 7 1016.6 - 0.0
02/03:30am 18.6 16.3 5.8 43 6.4 SSW 7 9 4 5 1016.6 - 0.0
02/03:00am 18.8 16.1 5.8 42 6.5 SSW 9 11 5 6 1016.7 1015.9 0.0
02/02:30am 19.2 16.5 5.5 40 6.8 S 9 13 5 7 1016.9 - 0.0
02/02:00am 19.4 17.2 6.1 42 6.7 S 7 11 4 6 1017.0 - 0.0
02/01:30am 19.6 16.6 5.9 40 6.9 S 11 15 6 8 1017.0 - 0.0
02/01:00am 20.0 16.9 5.4 38 7.3 S 11 15 6 8 1017.5 - 0.0
02/12:30am 20.3 16.8 5.6 38 7.4 S 13 19 7 10 1017.4 - 0.0
02/12:00am 20.3 17.7 6.1 39 7.2 S 9 15 5 8 1017.6 1016.8 0.0
 
Date/Time
CST
Temp
°C
App
Temp
°C
Dew
Point
Rel
Hum
%
Delta-T
°C
Wind Press
QNH
hPa
Press
MSL
hPa
Rain
since 9 am
mm
Dir
 
Spd
km/h
Gust
km/h
Spd
kts
Gust
kts
01/11:30pm 20.6 17.7 6.3 39 7.3 S 11 15 6 8 1018.0 - 0.0
01/11:00pm 20.8 17.5 6.6 39 7.3 SSE 13 17 7 9 1017.7 - 0.0
01/10:30pm 21.4 18.1 6.4 37 7.7 SSE 13 19 7 10 1018.0 - 0.0
01/10:00pm 22.0 17.9 6.2 36 8.1 S 17 26 9 14 1018.0 - 0.0
01/09:30pm 22.5 18.8 6.5 35 8.3 SSE 15 24 8 13 1017.8 - 0.0
01/09:00pm 23.2 18.7 6.2 33 8.8 SSE 19 26 10 14 1017.6 1016.8 0.0
01/08:30pm 24.2 19.5 6.1 31 9.4 SSE 20 32 11 17 1017.5 - 0.0
01/08:00pm 25.5 21.0 6.8 30 9.9 SSE 20 32 11 17 1017.3 - 0.0
01/07:30pm 26.4 23.0 9.1 33 9.6 SSE 17 28 9 15 1017.0 - 0.0
01/07:00pm 27.0 23.2 9.2 32 9.9 SSE 19 28 10 15 1016.9 - 0.0
01/06:30pm 27.6 23.6 9.2 31 10.3 SSE 20 32 11 17 1016.6 - 0.0
01/06:00pm 28.2 23.9 9.3 30 10.6 SSE 22 35 12 19 1016.2 1015.4 0.0
01/05:30pm 29.3 25.1 9.8 29 11.1 SSE 22 35 12 19 1015.8 - 0.0
01/05:00pm 30.5 26.3 9.9 28 11.8 SSE 22 35 12 19 1015.4 - 0.0
01/04:30pm 31.5 26.8 10.5 27 12.2 SSE 26 44 14 24 1015.0 - 0.0
01/04:00pm 32.6 29.5 10.3 25 13.0 ESE 17 24 9 13 1014.9 - 0.0
01/03:30pm 32.8 30.2 10.6 25 13.0 SE 15 20 8 11 1014.9 - 0.0
01/03:00pm 32.5 29.3 9.8 24 13.1 ESE 17 28 9 15 1014.9 1014.1 0.0
01/02:30pm 32.8 29.3 10.1 24 13.2 ESE 19 30 10 16 1014.9 - 0.0
01/02:00pm 32.5 29.1 10.4 25 12.9 SSE 19 30 10 16 1015.1 - 0.0
01/01:30pm 32.0 28.5 10.1 26 12.7 SSE 19 30 10 16 1015.3 - 0.0
01/01:00pm 31.5 27.4 10.0 26 12.4 SSE 22 33 12 18 1015.9 - 0.0
01/12:30pm 31.4 28.3 10.4 27 12.2 SSE 17 28 9 15 1016.4 - 0.0
01/12:00pm 31.4 27.7 10.3 27 12.2 SE 20 35 11 19 1016.9 1016.2 0.0
01/11:30am 31.2 27.5 10.3 27 12.1 SE 20 28 11 15 1017.2 - 0.0
01/11:00am 30.4 26.3 10.0 28 11.7 SE 22 32 12 17 1017.6 - 0.0
01/10:30am 30.0 26.4 10.4 29 11.3 SE 20 30 11 16 1018.1 - 0.0
01/10:00am 28.3 24.9 10.5 33 10.2 ESE 19 28 10 15 1018.1 - 0.0
01/09:30am 28.8 24.6 9.8 30 10.8 ESE 22 33 12 18 1017.6 - 0.0
01/09:00am 27.4 23.7 9.3 32 10.1 ESE 19 26 10 14 1017.5 1016.9 0.0
01/08:30am 25.7 23.4 9.0 34 9.2 ESE 11 19 6 10 1017.4 - 0.0
01/08:00am 24.3 22.9 8.9 37 8.4 ESE 6 11 3 6 1017.1 - 0.0
01/07:30am 23.4 23.8 11.4 46 6.8 CALM 0 0 0 0 1016.9 - 0.0
01/07:00am 22.3 20.9 9.0 42 7.2 ESE 6 7 3 4 1016.4 - 0.0
01/06:30am 22.6 21.1 9.0 42 7.4 SE 7 11 4 6 1016.3 - 0.0
01/06:00am 23.2 21.1 8.3 38 8.0 SE 9 13 5 7 1015.9 1014.5 0.0
01/05:30am 23.6 21.1 8.2 37 8.3 SE 11 19 6 10 1015.6 - 0.0
01/05:00am 23.9 21.4 8.4 37 8.4 SE 11 15 6 8 1015.4 - 0.0
01/04:30am 23.9 21.1 8.6 37 8.3 ESE 13 17 7 9 1015.1 - 0.0
01/04:00am 24.3 21.5 8.7 37 8.5 SE 13 17 7 9 1015.1 - 0.0
01/03:30am 24.6 22.0 9.4 38 8.4 SE 13 20 7 11 1015.0 - 0.0
01/03:00am 25.2 22.2 9.3 36 8.8 SE 15 22 8 12 1014.9 1013.4 0.0
01/02:30am 25.6 22.3 9.4 36 9.0 SE 17 26 9 14 1014.8 - 0.0
01/02:00am 26.4 23.4 9.4 34 9.5 S 15 20 8 11 1014.8 - 0.0
01/01:30am 25.1 23.7 9.4 37 8.7 WSW 7 20 4 11 1014.2 - 0.0
01/01:00am 24.4 22.6 10.8 42 7.7 N 11 13 6 7 1014.1 - 0.0
01/12:30am 24.4 22.6 11.0 43 7.6 N 11 11 6 6 1014.4 - 0.0
01/12:00am 24.9 23.0 10.6 40 8.1 N 11 13 6 7 1014.6 1013.2 0.0
 
Date/Time
CST
Temp
°C
App
Temp
°C
Dew
Point
Rel
Hum
%
Delta-T
°C
Wind Press
QNH
hPa
Press
MSL
hPa
Rain
since 9 am
mm
Dir
 
Spd
km/h
Gust
km/h
Spd
kts
Gust
kts
30/11:30pm 25.4 23.5 10.6 39 8.4 N 11 13 6 7 1014.8 - 0.0
30/11:00pm 24.9 23.5 11.0 41 7.9 N 9 13 5 7 1014.9 - 0.0
30/10:30pm 25.2 24.5 11.9 43 7.7 N 7 9 4 5 1014.9 - 0.0
30/10:00pm 25.5 23.7 10.7 39 8.4 NNE 11 13 6 7 1014.9 - 0.0
30/09:30pm 24.9 24.0 11.5 43 7.7 NNE 7 11 4 6 1014.8 - 0.0
30/09:00pm 25.4 25.5 10.1 38 8.6 CALM 0 0 0 0 1015.0 1013.5 0.0
30/08:30pm 25.5 26.2 12.3 43 7.7 CALM 0 0 0 0 1014.8 - 0.0

Other Formats:

Comma delimited format used in spreadsheet applications
http://www.bom.gov.au/fwo/IDD60801/IDD60801.94327.axf

JavaScript Object Notation format (JSON) in row-major order
http://www.bom.gov.au/fwo/IDD60801/IDD60801.94327.json